Time;durP1;ratioP1;P1;durP2;ratioP2;P2;SDS_P1;SDS_P2;PMS_P1;PMS_P2;Temp;Humidity;BMP_temperature;BMP_pressure;BME280_temperature;BME280_humidity;BME280_pressure;Samples;Min_cycle;Max_cycle;Signal;HPM_P1;HPM_P2
2022/05/09 00:01:25;;;;;;;24.77;9.05;;;;;;;11.48;100.00;100098.84;4926152;29;20036;-80
2022/05/09 00:03:51;;;;;;;19.83;8.30;;;;;;;11.49;100.00;100097.84;4923365;29;20368;-80
2022/05/09 00:06:19;;;;;;;17.08;7.82;;;;;;;11.39;100.00;100087.56;4923550;29;20043;-80
2022/05/09 00:08:44;;;;;;;15.40;7.65;;;;;;;11.39;100.00;100093.66;4924689;29;20435;-80
2022/05/09 00:11:12;;;;;;;19.75;7.95;;;;;;;11.37;100.00;100085.13;4920166;29;20044;-80
2022/05/09 00:13:39;;;;;;;20.25;9.80;;;;;;;11.31;100.00;100088.47;4914476;29;20028;-80
2022/05/09 00:16:05;;;;;;;20.48;8.50;;;;;;;11.28;100.00;100081.72;4929364;29;20040;-80
2022/05/09 00:18:32;;;;;;;18.35;8.45;;;;;;;11.26;100.00;100085.50;4922785;29;20031;-80
2022/05/09 00:20:57;;;;;;;18.40;8.85;;;;;;;11.22;100.00;100077.19;4921811;29;20099;-80
2022/05/09 00:23:23;;;;;;;21.85;8.80;;;;;;;11.27;100.00;100069.59;4924403;29;20035;-80
2022/05/09 00:25:49;;;;;;;18.40;9.57;;;;;;;11.21;100.00;100079.97;4926176;29;20482;-80
2022/05/09 00:28:15;;;;;;;18.33;9.45;;;;;;;11.20;100.00;100076.53;4932190;29;20028;-80
2022/05/09 00:30:41;;;;;;;24.30;9.88;;;;;;;11.15;100.00;100076.22;4925289;29;20070;-78
2022/05/09 00:33:06;;;;;;;16.40;8.25;;;;;;;11.14;100.00;100079.84;4919256;29;20059;-80
2022/05/09 00:35:33;;;;;;;18.10;9.02;;;;;;;11.09;100.00;100071.66;4924193;29;20040;-79
2022/05/09 00:37:58;;;;;;;21.83;8.50;;;;;;;11.10;100.00;100071.50;4923672;29;20042;-79
2022/05/09 00:40:24;;;;;;;19.00;8.40;;;;;;;11.02;100.00;100070.72;4927470;29;20521;-80
2022/05/09 00:42:52;;;;;;;21.88;9.38;;;;;;;11.06;100.00;100062.28;4921531;29;20523;-79
2022/05/09 00:45:26;;;;;;;19.88;8.75;;;;;;;11.06;100.00;100072.00;4925192;29;20028;-79
2022/05/09 00:47:53;;;;;;;17.67;7.88;;;;;;;11.07;100.00;100063.13;4926889;29;20048;-79
2022/05/09 00:50:30;;;;;;;19.35;8.80;;;;;;;11.09;100.00;100055.88;4920821;29;20072;-79
2022/05/09 00:53:01;;;;;;;19.25;9.35;;;;;;;11.10;100.00;100054.91;4928631;29;20040;-79
2022/05/09 00:55:47;;;;;;;25.80;8.68;;;;;;;11.12;100.00;100064.25;4927576;29;20028;-78
2022/05/09 00:58:38;;;;;;;16.42;8.93;;;;;;;11.12;100.00;100055.53;4920616;29;20028;-79
2022/05/09 01:01:05;;;;;;;18.20;8.68;;;;;;;11.07;100.00;100042.09;4921298;29;20086;-79
2022/05/09 01:03:38;;;;;;;18.38;8.43;;;;;;;11.13;100.00;100049.28;4921574;29;20028;-80
2022/05/09 01:06:03;;;;;;;;;;;;;;;11.09;100.00;100042.75;4920479;29;20474;-79
2022/05/09 01:08:34;;;;;;;13.27;7.35;;;;;;;11.03;100.00;100035.56;4922394;29;19914;-80
2022/05/09 01:11:03;;;;;;;18.95;9.20;;;;;;;11.08;100.00;100035.88;4921641;29;20124;-80
2022/05/09 01:13:34;;;;;;;17.27;9.30;;;;;;;11.05;100.00;100034.38;4923623;29;20043;-79
2022/05/09 01:16:02;;;;;;;17.95;8.85;;;;;;;10.96;100.00;100030.97;4926294;29;20418;-78
2022/05/09 01:18:28;;;;;;;16.65;8.50;;;;;;;10.92;100.00;100021.03;4923075;29;20032;-79
2022/05/09 01:20:53;;;;;;;20.50;9.10;;;;;;;10.90;100.00;100034.31;4929151;29;20038;-79
2022/05/09 01:23:19;;;;;;;19.85;8.30;;;;;;;10.91;100.00;100024.63;4926151;29;20031;-79
2022/05/09 01:25:44;;;;;;;16.15;9.23;;;;;;;10.99;100.00;100028.00;4923105;29;20478;-79
2022/05/09 01:28:11;;;;;;;23.85;9.88;;;;;;;11.00;100.00;100026.22;4924987;29;20090;-80
2022/05/09 01:30:49;;;;;;;22.92;10.02;;;;;;;11.05;100.00;100012.56;4919502;29;20532;-80
2022/05/09 01:33:22;;;;;;;25.58;10.00;;;;;;;11.02;100.00;100003.22;4922831;29;20032;-80
2022/05/09 01:35:57;;;;;;;27.33;9.93;;;;;;;11.08;100.00;100001.72;4918190;29;20422;-80
2022/05/09 01:38:35;;;;;;;18.90;9.57;;;;;;;11.07;100.00;99998.25;4922084;29;20122;-80
2022/05/09 01:41:01;;;;;;;22.63;9.10;;;;;;;11.10;100.00;99997.09;4923865;29;20399;-80
2022/05/09 01:43:40;;;;;;;21.42;9.27;;;;;;;11.12;100.00;99990.69;4928222;29;20039;-80
2022/05/09 01:46:15;;;;;;;24.10;9.90;;;;;;;11.09;100.00;99992.84;4919871;29;20042;-80
2022/05/09 01:51:26;;;;;;;20.65;9.40;;;;;;;11.07;100.00;100002.69;4922010;29;20439;-80
2022/05/09 01:53:52;;;;;;;17.85;9.95;;;;;;;11.05;100.00;99996.81;4927600;29;20028;-80
2022/05/09 01:56:23;;;;;;;28.88;10.40;;;;;;;11.00;100.00;99999.94;4924322;29;20063;-80
2022/05/09 01:58:49;;;;;;;26.85;9.55;;;;;;;10.97;100.00;99995.84;4923438;29;20077;-79
2022/05/09 02:01:19;;;;;;;20.85;9.65;;;;;;;10.96;100.00;99999.47;4925246;29;20474;-80
2022/05/09 02:03:46;;;;;;;22.65;9.35;;;;;;;11.02;100.00;99999.78;4922829;29;20043;-80
2022/05/09 02:06:12;;;;;;;26.38;9.75;;;;;;;11.03;100.00;100004.84;4914153;29;20068;-79
2022/05/09 02:08:38;;;;;;;24.33;8.98;;;;;;;10.99;100.00;99993.84;4918140;29;20398;-80
2022/05/09 02:11:05;;;;;;;22.25;9.73;;;;;;;10.99;100.00;99995.69;4920550;29;20059;-81
2022/05/09 02:13:31;;;;;;;23.83;10.10;;;;;;;10.98;100.00;99991.41;4909659;29;20035;-80
2022/05/09 02:15:57;;;;;;;30.42;9.98;;;;;;;11.03;100.00;99998.78;4923720;29;20079;-81
2022/05/09 02:18:23;;;;;;;22.45;10.45;;;;;;;10.97;100.00;99990.59;4923131;29;20028;-81
2022/05/09 02:20:48;;;;;;;24.95;9.43;;;;;;;11.06;100.00;99993.19;4926293;29;20115;-81
2022/05/09 02:23:15;;;;;;;22.23;10.00;;;;;;;10.99;100.00;99991.22;4919019;29;20028;-81
2022/05/09 02:25:42;;;;;;;23.00;9.00;;;;;;;11.05;100.00;99989.72;4927611;29;20079;-80
2022/05/09 02:28:09;;;;;;;23.38;9.57;;;;;;;11.02;100.00;99984.03;4921144;29;20032;-80
2022/05/09 02:30:36;;;;;;;21.33;8.85;;;;;;;11.09;100.00;99993.63;4923226;29;20032;-81
2022/05/09 02:33:03;;;;;;;17.92;8.75;;;;;;;11.12;100.00;100003.00;4918282;29;20040;-81
2022/05/09 02:35:32;;;;;;;15.95;8.95;;;;;;;11.14;100.00;99991.31;4923765;29;20027;-80
2022/05/09 02:37:57;;;;;;;24.40;9.05;;;;;;;11.21;100.00;99980.94;4905205;29;20111;-81
2022/05/09 02:40:26;;;;;;;19.92;8.48;;;;;;;11.24;100.00;99985.00;4920831;29;20151;-80
2022/05/09 02:42:53;;;;;;;22.10;8.27;;;;;;;11.40;100.00;99978.81;4923538;29;20082;-81
2022/05/09 02:45:19;;;;;;;21.05;9.13;;;;;;;11.52;100.00;99979.22;4920898;29;20044;-81
2022/05/09 02:47:45;;;;;;;21.25;8.52;;;;;;;11.60;100.00;99978.34;4928628;29;20042;-81
2022/05/09 02:50:12;;;;;;;15.23;7.80;;;;;;;11.69;100.00;99966.72;4919326;29;20044;-80
2022/05/09 02:52:37;;;;;;;19.10;7.80;;;;;;;11.74;100.00;99974.09;4921382;29;20036;-80
2022/05/09 02:55:07;;;;;;;18.10;8.10;;;;;;;11.78;100.00;99973.53;4928022;29;20478;-81
2022/05/09 02:57:34;;;;;;;18.15;8.02;;;;;;;11.75;100.00;99966.00;4920279;29;20422;-80
2022/05/09 03:00:03;;;;;;;24.10;8.05;;;;;;;11.68;100.00;99971.16;4923524;29;20036;-81
2022/05/09 03:02:29;;;;;;;19.00;7.88;;;;;;;11.67;100.00;99964.28;4918360;29;20046;-79
2022/05/09 03:04:54;;;;;;;21.85;9.48;;;;;;;11.63;100.00;99963.00;4918444;29;20040;-80
2022/05/09 03:07:20;;;;;;;11.73;7.93;;;;;;;11.60;100.00;99962.56;4923490;29;20147;-81
2022/05/09 03:09:47;;;;;;;22.30;8.38;;;;;;;11.55;100.00;99960.44;4927925;29;20466;-80
2022/05/09 03:12:14;;;;;;;16.83;8.10;;;;;;;11.42;100.00;99945.28;4931055;29;20103;-81
2022/05/09 03:14:40;;;;;;;15.40;8.10;;;;;;;11.33;100.00;99951.59;4930801;29;20465;-80
2022/05/09 03:17:08;;;;;;;20.55;8.30;;;;;;;11.19;100.00;99951.34;4928417;29;20470;-80
2022/05/09 03:19:33;;;;;;;23.23;7.90;;;;;;;11.02;100.00;99939.34;4923509;29;20027;-80
2022/05/09 03:22:00;;;;;;;19.67;8.85;;;;;;;10.94;100.00;99937.59;4923992;29;20086;-80
2022/05/09 03:24:26;;;;;;;21.85;9.40;;;;;;;10.95;100.00;99942.66;4925380;29;20039;-80
2022/05/09 03:26:51;;;;;;;16.63;8.35;;;;;;;10.96;100.00;99946.13;4923825;29;20027;-80
2022/05/09 03:29:19;;;;;;;16.25;7.88;;;;;;;10.89;100.00;99930.25;4927222;29;20050;-79
2022/05/09 03:31:47;;;;;;;25.23;9.60;;;;;;;10.81;100.00;99925.06;4931761;29;20024;-80
2022/05/09 03:34:15;;;;;;;14.10;7.97;;;;;;;10.78;100.00;99925.38;4930098;29;20448;-80
2022/05/09 03:36:41;;;;;;;16.35;8.45;;;;;;;10.69;100.00;99925.44;4930255;29;20028;-80
2022/05/09 03:39:07;;;;;;;21.38;9.30;;;;;;;10.61;100.00;99922.88;4926270;29;20046;-81
2022/05/09 03:41:33;;;;;;;20.70;9.18;;;;;;;10.68;100.00;99929.06;4929886;29;20111;-80
2022/05/09 03:43:59;;;;;;;19.75;8.20;;;;;;;10.72;100.00;99934.78;4930900;29;20107;-79
2022/05/09 03:46:27;;;;;;;15.48;8.13;;;;;;;10.69;100.00;99914.94;4921133;29;20051;-81
2022/05/09 03:48:53;;;;;;;20.17;8.98;;;;;;;10.68;100.00;99918.56;4922694;29;20039;-80
2022/05/09 03:51:19;;;;;;;17.05;9.38;;;;;;;10.67;100.00;99922.16;4927765;29;20403;-80
2022/05/09 03:53:44;;;;;;;19.58;8.18;;;;;;;10.62;100.00;99914.00;4920736;29;20040;-80
2022/05/09 03:56:10;;;;;;;17.75;8.82;;;;;;;10.69;100.00;99916.72;4929565;29;20030;-80
2022/05/09 03:58:36;;;;;;;22.00;9.68;;;;;;;10.65;100.00;99900.53;4926804;29;20487;-80
2022/05/09 04:01:02;;;;;;;19.60;9.15;;;;;;;10.65;100.00;99908.41;4920587;29;20423;-80
2022/05/09 04:03:29;;;;;;;19.70;8.88;;;;;;;10.65;100.00;99886.56;4899539;29;20035;-80
2022/05/09 04:05:55;;;;;;;20.67;9.65;;;;;;;10.67;100.00;99895.91;4938248;28;20071;-80
2022/05/09 04:08:21;;;;;;;21.75;9.35;;;;;;;10.61;100.00;99887.91;4905869;29;20102;-80
2022/05/09 04:10:49;;;;;;;16.38;8.60;;;;;;;10.62;100.00;99892.16;4926732;29;20036;-80
2022/05/09 04:13:16;;;;;;;19.20;8.20;;;;;;;10.60;100.00;99894.94;4921393;29;20031;-80
2022/05/09 04:18:41;;;;;;;22.50;10.35;;;;;;;10.58;100.00;99875.94;4929449;29;20039;-80
2022/05/09 04:21:08;;;;;;;18.73;8.98;;;;;;;10.64;100.00;99880.50;4924458;29;20066;-80
2022/05/09 04:23:34;;;;;;;17.25;10.02;;;;;;;10.56;100.00;99873.50;4922999;29;20149;-80
2022/05/09 04:26:01;;;;;;;18.75;9.25;;;;;;;10.62;100.00;99877.25;4928249;29;20039;-80
2022/05/09 04:28:27;;;;;;;22.67;9.38;;;;;;;10.60;100.00;99875.78;4924348;29;20028;-80
2022/05/09 04:30:53;;;;;;;15.02;8.00;;;;;;;10.56;100.00;99863.00;4925711;29;20028;-81
2022/05/09 04:33:22;;;;;;;18.65;8.80;;;;;;;10.54;100.00;99869.41;4929718;29;20027;-79
2022/05/09 04:35:48;;;;;;;16.73;8.93;;;;;;;10.47;100.00;99864.03;4918682;29;20024;-80
2022/05/09 04:38:23;;;;;;;17.23;8.55;;;;;;;10.49;100.00;99859.41;4929533;29;20061;-80
2022/05/09 04:40:54;;;;;;;18.10;8.35;;;;;;;10.53;100.00;99857.28;4920619;29;20474;-80
2022/05/09 04:43:25;;;;;;;18.17;8.98;;;;;;;10.61;100.00;99857.22;4920435;29;20359;-79
2022/05/09 04:45:51;;;;;;;18.55;8.95;;;;;;;10.59;100.00;99851.31;4924153;29;20534;-80
2022/05/09 04:48:19;;;;;;;19.55;8.63;;;;;;;10.69;100.00;99851.09;4927937;29;20047;-80
2022/05/09 04:50:45;;;;;;;19.88;9.15;;;;;;;10.76;100.00;99852.03;4926281;29;20044;-81
2022/05/09 04:53:11;;;;;;;17.88;9.05;;;;;;;10.86;100.00;99852.59;4928606;29;20118;-80
2022/05/09 04:55:37;;;;;;;21.25;9.13;;;;;;;10.95;100.00;99855.19;4924970;29;20036;-80
2022/05/09 04:58:04;;;;;;;19.95;8.38;;;;;;;11.00;100.00;99842.31;4923829;29;20079;-80
2022/05/09 05:00:30;;;;;;;20.98;9.18;;;;;;;11.10;100.00;99839.44;4919086;29;20032;-80
2022/05/09 05:02:56;;;;;;;17.80;8.90;;;;;;;11.27;100.00;99848.81;4926004;29;20457;-80
2022/05/09 05:05:24;;;;;;;15.18;8.25;;;;;;;11.35;100.00;99854.97;4917072;29;20036;-79
2022/05/09 05:07:50;;;;;;;15.25;8.48;;;;;;;11.43;100.00;99853.09;4921139;29;20040;-79
2022/05/09 05:10:16;;;;;;;18.20;9.15;;;;;;;11.52;100.00;99845.94;4922797;29;20051;-81
2022/05/09 05:12:43;;;;;;;17.48;8.43;;;;;;;11.58;100.00;99850.47;4923721;29;20036;-80
2022/05/09 05:15:09;;;;;;;13.80;8.40;;;;;;;11.65;100.00;99849.75;4923244;29;20376;-81
2022/05/09 05:17:36;;;;;;;15.43;8.10;;;;;;;11.59;100.00;99840.78;4930145;29;20115;-80
2022/05/09 05:20:04;;;;;;;16.42;8.48;;;;;;;11.80;100.00;99847.09;4926301;29;20032;-81
2022/05/09 05:22:36;;;;;;;18.90;8.77;;;;;;;11.92;100.00;99837.78;4924852;29;20028;-80
2022/05/09 05:25:02;;;;;;;22.75;9.00;;;;;;;12.00;100.00;99834.22;4925687;29;20062;-80
2022/05/09 05:27:28;;;;;;;19.13;7.95;;;;;;;12.11;100.00;99832.97;4925160;29;20518;-81
2022/05/09 05:29:57;;;;;;;17.05;7.28;;;;;;;12.27;100.00;99829.28;4921500;29;20052;-80
2022/05/09 05:32:24;;;;;;;15.75;7.97;;;;;;;12.33;100.00;99823.25;4923570;29;20360;-81
2022/05/09 05:34:51;;;;;;;15.32;7.57;;;;;;;12.14;100.00;99814.97;4924527;29;20034;-81
2022/05/09 05:37:18;;;;;;;14.75;8.20;;;;;;;12.45;100.00;99810.41;4920454;29;20067;-81
2022/05/09 05:39:45;;;;;;;15.55;7.72;;;;;;;12.41;100.00;99814.44;4925755;29;20111;-81
2022/05/09 05:42:11;;;;;;;23.30;8.10;;;;;;;12.62;100.00;99829.44;4918987;29;20024;-80
2022/05/09 05:44:37;;;;;;;14.65;8.35;;;;;;;12.70;100.00;99825.88;4928079;29;20038;-80
2022/05/09 05:47:11;;;;;;;13.93;7.47;;;;;;;12.77;100.00;99824.09;4923679;29;20043;-81
2022/05/09 05:49:38;;;;;;;15.32;9.02;;;;;;;12.95;100.00;99820.19;4925015;29;20048;-79
2022/05/09 05:52:06;;;;;;;15.70;10.27;;;;;;;12.95;100.00;99814.91;4919570;29;20040;-80
2022/05/09 05:54:33;;;;;;;17.92;8.80;;;;;;;12.98;100.00;99823.25;4923340;29;20043;-81
2022/05/09 05:57:00;;;;;;;16.50;7.80;;;;;;;13.23;100.00;99828.09;4920530;29;20029;-80
2022/05/09 05:59:25;;;;;;;17.48;8.18;;;;;;;13.23;100.00;99836.00;4914398;29;20573;-78
2022/05/09 06:01:52;;;;;;;14.82;8.07;;;;;;;13.34;100.00;99826.75;4924729;29;20027;-78
2022/05/09 06:04:18;;;;;;;13.30;7.68;;;;;;;13.50;100.00;99825.66;4922907;29;20442;-78
2022/05/09 06:06:44;;;;;;;15.30;7.43;;;;;;;13.65;100.00;99832.63;4921742;29;20040;-78
2022/05/09 06:09:11;;;;;;;14.57;7.60;;;;;;;13.75;100.00;99833.06;4924267;29;21780;-80
2022/05/09 06:11:37;;;;;;;16.38;6.95;;;;;;;13.77;100.00;99830.25;4916765;29;20474;-78
2022/05/09 06:14:04;;;;;;;18.17;6.75;;;;;;;13.84;100.00;99833.72;4920902;29;20500;-78
2022/05/09 06:16:30;;;;;;;13.48;6.97;;;;;;;14.12;100.00;99836.28;4922223;29;20079;-78
2022/05/09 06:18:59;;;;;;;19.90;7.22;;;;;;;14.25;100.00;99829.41;4927754;29;20077;-78
2022/05/09 06:21:27;;;;;;;13.68;6.93;;;;;;;13.93;100.00;99824.66;4929111;29;20032;-79
2022/05/09 06:23:52;;;;;;;15.02;6.82;;;;;;;14.07;100.00;99824.72;4926365;29;20071;-78
2022/05/09 06:26:20;;;;;;;16.17;7.20;;;;;;;14.12;100.00;99823.06;4919027;29;20072;-78
2022/05/09 06:28:46;;;;;;;18.17;7.20;;;;;;;14.30;100.00;99829.63;4923817;29;20119;-81
2022/05/09 06:31:11;;;;;;;14.57;6.78;;;;;;;14.56;100.00;99828.06;4920981;29;20122;-80
2022/05/09 06:33:37;;;;;;;15.18;6.80;;;;;;;14.81;100.00;99827.50;4924776;29;20055;-79
2022/05/09 06:36:03;;;;;;;15.00;6.43;;;;;;;14.60;100.00;99823.19;4924827;29;20446;-78
2022/05/09 06:38:33;;;;;;;14.35;6.20;;;;;;;14.55;100.00;99834.38;4924935;29;20028;-79
2022/05/09 06:41:01;;;;;;;16.75;6.57;;;;;;;14.49;100.00;99827.22;4922239;29;20039;-80
2022/05/09 06:43:29;;;;;;;11.73;5.97;;;;;;;14.92;100.00;99811.03;4918387;29;20505;-79
2022/05/09 06:45:56;;;;;;;16.02;6.13;;;;;;;14.94;100.00;99818.75;4920606;29;20521;-81
2022/05/09 06:48:22;;;;;;;15.80;6.13;;;;;;;14.97;100.00;99819.19;4910470;29;20379;-80
2022/05/09 06:50:48;;;;;;;16.85;6.43;;;;;;;15.06;100.00;99817.13;4926572;29;20507;-79
2022/05/09 06:53:14;;;;;;;19.60;7.07;;;;;;;14.88;100.00;99804.53;4924075;29;20502;-79
2022/05/09 06:55:40;;;;;;;13.40;6.07;;;;;;;14.67;100.00;99811.59;4907001;29;20063;-80
2022/05/09 06:58:08;;;;;;;18.27;6.80;;;;;;;14.69;100.00;99816.69;4923200;29;20038;-79
2022/05/09 07:00:37;;;;;;;13.63;5.80;;;;;;;14.69;100.00;99825.44;4925856;29;20027;-80
2022/05/09 07:03:04;;;;;;;18.48;6.72;;;;;;;14.73;100.00;99830.34;4924680;29;20439;-80
2022/05/09 07:05:30;;;;;;;15.52;6.07;;;;;;;14.71;100.00;99823.41;4922885;29;20106;-79
2022/05/09 07:07:56;;;;;;;14.13;5.88;;;;;;;14.51;100.00;99818.09;4926683;29;20032;-78
2022/05/09 07:10:22;;;;;;;17.67;6.68;;;;;;;14.84;100.00;99819.16;4928805;29;20439;-77
2022/05/09 07:12:53;;;;;;;12.93;5.95;;;;;;;14.99;100.00;99824.25;4925332;29;20090;-77
2022/05/09 07:15:27;;;;;;;21.00;6.80;;;;;;;15.14;100.00;99814.28;4920369;29;20074;-77
2022/05/09 07:17:54;;;;;;;17.67;7.10;;;;;;;14.84;100.00;99813.88;4931626;28;20442;-76
2022/05/09 07:20:21;;;;;;;16.85;6.43;;;;;;;15.08;100.00;99795.75;4923158;29;20020;-77
2022/05/09 07:22:56;;;;;;;12.88;6.13;;;;;;;15.50;100.00;99804.22;4927731;29;20122;-77
2022/05/09 07:25:23;;;;;;;14.23;5.95;;;;;;;15.61;100.00;99796.66;4926868;29;20028;-77
2022/05/09 07:27:50;;;;;;;9.77;5.35;;;;;;;15.54;100.00;99792.22;4927221;29;20478;-78
2022/05/09 07:30:19;;;;;;;14.80;5.22;;;;;;;15.80;100.00;99774.59;4922616;29;20032;-78
2022/05/09 07:32:45;;;;;;;14.45;5.57;;;;;;;15.97;100.00;99769.66;4924500;29;20108;-79
2022/05/09 07:35:14;;;;;;;11.35;6.45;;;;;;;16.07;100.00;99774.50;4930061;29;20048;-79
2022/05/09 07:37:40;;;;;;;17.13;6.10;;;;;;;15.89;100.00;99756.69;4929039;29;20032;-78
2022/05/09 07:40:10;;;;;;;12.88;5.18;;;;;;;16.24;100.00;99763.38;4926595;29;20059;-78
2022/05/09 07:42:42;;;;;;;12.70;5.70;;;;;;;16.48;100.00;99753.03;4929727;29;20032;-79
2022/05/09 07:45:10;;;;;;;10.30;5.18;;;;;;;16.59;100.00;99755.00;4923217;29;20118;-79
2022/05/09 07:47:39;;;;;;;12.40;5.70;;;;;;;16.78;100.00;99753.19;4922980;29;20028;-79
2022/05/09 07:50:06;;;;;;;12.48;5.80;;;;;;;16.87;100.00;99751.06;4916096;29;20176;-79
2022/05/09 07:52:32;;;;;;;12.13;5.70;;;;;;;16.93;100.00;99752.03;4925837;29;20039;-79
2022/05/09 07:54:57;;;;;;;10.23;4.80;;;;;;;16.91;99.67;99740.84;4915287;29;20023;-79
2022/05/09 07:57:23;;;;;;;9.73;5.20;;;;;;;16.61;99.99;99739.69;4925573;29;20031;-79
2022/05/09 07:59:49;;;;;;;12.88;4.57;;;;;;;16.89;99.05;99733.09;4924445;29;20054;-78
2022/05/09 08:02:14;;;;;;;10.93;4.60;;;;;;;17.38;98.28;99737.72;4923084;29;20043;-78
2022/05/09 08:04:40;;;;;;;9.60;4.15;;;;;;;17.51;96.93;99724.31;4901162;29;20043;-77
2022/05/09 08:07:05;;;;;;;10.00;4.45;;;;;;;17.56;96.10;99727.09;4921976;29;20032;-78
2022/05/09 08:09:31;;;;;;;10.98;4.25;;;;;;;17.99;95.06;99735.09;4925736;29;20036;-78
2022/05/09 08:11:58;;;;;;;7.18;4.25;;;;;;;18.24;92.31;99723.50;4924707;29;20474;-77
2022/05/09 08:14:25;;;;;;;10.77;5.00;;;;;;;18.53;90.34;99732.44;4919321;29;20040;-78
2022/05/09 08:16:51;;;;;;;12.23;4.88;;;;;;;18.81;90.71;99722.16;4920915;29;20032;-78
2022/05/09 08:19:18;;;;;;;9.93;4.68;;;;;;;18.96;88.37;99725.16;4923435;29;20066;-77
2022/05/09 08:21:47;;;;;;;9.05;4.45;;;;;;;19.21;88.63;99723.31;4925292;29;20135;-80
2022/05/09 08:24:12;;;;;;;11.10;5.00;;;;;;;19.52;87.20;99714.09;4924392;29;20043;-78
2022/05/09 08:26:38;;;;;;;7.80;4.65;;;;;;;19.45;83.69;99725.91;4926616;29;20032;-78
2022/05/09 08:29:04;;;;;;;7.35;4.18;;;;;;;19.68;82.17;99728.50;4922577;29;20105;-78
2022/05/09 08:31:31;;;;;;;7.25;4.38;;;;;;;19.52;81.52;99730.06;4922776;29;20031;-78
2022/05/09 08:33:57;;;;;;;7.38;4.30;;;;;;;19.64;81.16;99721.22;4924813;29;20486;-78
2022/05/09 08:39:08;;;;;;;7.43;4.30;;;;;;;19.75;79.92;99712.38;4923835;29;20110;-78
2022/05/09 08:41:48;;;;;;;7.45;4.50;;;;;;;19.65;77.84;99701.50;4910177;29;20035;-78
2022/05/09 08:44:47;;;;;;;4.30;3.90;;;;;;;19.89;78.59;99704.09;4925570;29;20036;-77
2022/05/09 08:47:34;;;;;;;11.85;4.72;;;;;;;19.53;77.42;99701.56;4916879;29;20112;-77
2022/05/09 08:50:00;;;;;;;8.13;4.28;;;;;;;19.37;78.12;99711.94;4915411;29;20044;-77
2022/05/09 08:52:39;;;;;;;8.65;4.20;;;;;;;19.12;77.19;99704.25;4912463;29;20032;-78
2022/05/09 08:55:06;;;;;;;6.55;4.68;;;;;;;19.20;76.75;99716.38;4922373;29;20047;-77
2022/05/09 08:57:40;;;;;;;6.15;3.92;;;;;;;19.37;76.83;99711.13;4924636;29;20043;-78
2022/05/09 09:00:15;;;;;;;8.07;4.30;;;;;;;19.32;77.44;99705.69;4926476;29;20066;-78
2022/05/09 09:02:56;;;;;;;10.15;4.63;;;;;;;19.26;75.70;99699.47;4919321;29;20070;-78
2022/05/09 09:05:24;;;;;;;9.18;4.88;;;;;;;19.09;76.00;99696.75;4921761;29;20131;-79
2022/05/09 09:08:04;;;;;;;6.20;3.75;;;;;;;18.92;75.46;99691.28;4924827;29;20031;-78
2022/05/09 09:10:44;;;;;;;9.32;4.22;;;;;;;19.14;74.86;99686.19;4922013;29;20043;-79
2022/05/09 09:13:33;;;;;;;7.13;4.25;;;;;;;19.47;76.33;99683.88;4916956;29;20047;-78
2022/05/09 09:16:16;;;;;;;10.27;3.90;;;;;;;19.04;73.43;99686.78;4925184;29;20039;-77
2022/05/09 09:18:56;;;;;;;7.60;4.13;;;;;;;19.38;75.10;99680.78;4919410;29;20040;-78
2022/05/09 09:21:31;;;;;;;8.45;4.72;;;;;;;19.23;76.16;99684.75;4916981;29;20044;-77
2022/05/09 09:24:21;;;;;;;5.45;4.60;;;;;;;19.57;76.92;99683.28;4917813;29;20055;-78
2022/05/09 09:27:14;;;;;;;7.53;4.80;;;;;;;19.41;77.15;99669.66;4927389;29;20032;-78
2022/05/09 09:29:51;;;;;;;9.60;4.78;;;;;;;19.35;76.98;99682.06;4914324;29;20035;-78
2022/05/09 09:32:19;;;;;;;8.25;4.93;;;;;;;19.58;76.85;99676.91;4924635;29;20544;-78
2022/05/09 09:35:32;;;;;;;7.20;4.45;;;;;;;19.71;76.80;99668.63;4915985;29;20119;-79
2022/05/09 09:38:24;;;;;;;7.80;4.57;;;;;;;19.90;75.72;99668.41;4914161;29;20028;-78
2022/05/09 09:40:50;;;;;;;6.85;4.53;;;;;;;19.61;73.05;99650.59;4920459;29;20347;-80
2022/05/09 09:43:18;;;;;;;6.88;4.30;;;;;;;20.01;72.18;99638.22;4925456;29;20095;-78
2022/05/09 09:45:54;;;;;;;7.95;4.63;;;;;;;20.09;70.87;99640.50;4915881;29;20527;-79
2022/05/09 09:48:23;;;;;;;5.47;4.20;;;;;;;19.98;68.85;99636.88;4919345;29;20036;-79
2022/05/09 09:51:10;;;;;;;10.23;4.22;;;;;;;20.21;70.00;99639.59;4917297;29;20470;-79
2022/05/09 09:53:41;;;;;;;5.55;4.28;;;;;;;20.14;69.55;99634.44;4916647;29;20032;-78
2022/05/09 09:56:11;;;;;;;8.35;4.00;;;;;;;20.50;70.24;99624.28;4928398;29;20199;-79
2022/05/09 09:58:42;;;;;;;12.13;4.15;;;;;;;20.62;69.67;99620.72;4918565;29;20367;-78
2022/05/09 10:01:14;;;;;;;10.75;4.63;;;;;;;20.89;69.88;99625.34;4920770;29;20097;-78
2022/05/09 10:03:45;;;;;;;6.40;4.13;;;;;;;20.40;69.65;99606.28;4922292;29;20036;-77
2022/05/09 10:06:20;;;;;;;5.38;4.13;;;;;;;20.90;69.19;99605.59;4917453;29;20039;-78
2022/05/09 10:08:56;;;;;;;5.72;3.60;;;;;;;20.97;67.65;99596.34;4917528;29;20038;-78
2022/05/09 10:11:28;;;;;;;7.75;3.92;;;;;;;20.80;67.29;99590.28;4920856;29;20044;-78
2022/05/09 10:14:02;;;;;;;3.83;3.50;;;;;;;20.77;66.67;99604.09;4922355;29;20103;-79
2022/05/09 10:16:48;;;;;;;6.57;3.92;;;;;;;21.04;67.25;99592.69;4924210;29;20032;-78
2022/05/09 10:19:30;;;;;;;4.47;3.90;;;;;;;21.28;66.71;99582.53;4924163;29;20027;-78
2022/05/09 10:24:57;;;;;;;6.70;3.95;;;;;;;21.55;67.49;99555.00;4920061;29;20039;-78
2022/05/09 10:27:22;;;;;;;8.20;4.18;;;;;;;22.10;68.18;99565.53;4924792;29;20038;-78
2022/05/09 10:29:51;;;;;;;5.18;3.78;;;;;;;22.29;66.99;99552.56;4918796;29;20114;-79
2022/05/09 10:32:22;;;;;;;7.32;3.67;;;;;;;22.33;68.05;99545.63;4916021;29;20358;-79
2022/05/09 10:35:00;;;;;;;4.35;3.83;;;;;;;22.52;66.35;99542.53;4924360;29;20095;-79
2022/05/09 10:37:51;;;;;;;9.30;4.18;;;;;;;22.32;66.51;99549.38;4927717;29;20075;-81
2022/05/09 10:40:51;;;;;;;7.32;4.38;;;;;;;22.15;67.14;99532.69;4922888;29;20151;-78
2022/05/09 10:43:29;;;;;;;7.70;4.70;;;;;;;21.93;67.75;99528.31;4927760;29;20055;-80
2022/05/09 10:45:55;;;;;;;7.20;4.72;;;;;;;22.10;68.56;99539.63;4918389;29;20050;-78
2022/05/09 10:48:29;;;;;;;9.40;5.20;;;;;;;22.09;68.25;99535.34;4920466;29;20035;-78
2022/05/09 10:51:00;;;;;;;6.15;5.05;;;;;;;22.27;69.49;99522.59;4924320;29;20054;-79
2022/05/09 10:53:31;;;;;;;9.88;5.88;;;;;;;22.11;69.41;99525.19;4926254;29;20028;-78
2022/05/09 10:56:22;;;;;;;6.70;5.80;;;;;;;22.27;70.07;99511.91;4925859;29;20427;-79
2022/05/09 10:59:08;;;;;;;12.25;5.85;;;;;;;22.37;69.62;99522.63;4921033;29;20038;-78
2022/05/09 11:01:43;;;;;;;7.55;5.45;;;;;;;22.49;69.87;99519.78;4928749;29;20042;-78
2022/05/09 11:04:10;;;;;;;7.15;5.80;;;;;;;22.53;70.40;99509.38;4922144;29;20119;-78
2022/05/09 11:07:07;;;;;;;10.10;6.72;;;;;;;22.11;69.95;99508.38;4925335;29;20087;-79
2022/05/09 11:09:51;;;;;;;14.02;7.13;;;;;;;21.40;70.49;99504.91;4924837;29;20070;-78
2022/05/09 11:12:23;;;;;;;12.27;6.60;;;;;;;21.64;71.77;99509.94;4924974;29;20140;-78
2022/05/09 11:15:11;;;;;;;7.05;6.13;;;;;;;22.22;71.88;99510.00;4926997;29;20031;-78
2022/05/09 11:18:02;;;;;;;11.45;6.40;;;;;;;22.31;71.06;99502.31;4928092;29;20071;-79
2022/05/09 11:20:40;;;;;;;7.28;5.95;;;;;;;22.72;71.35;99495.50;4923174;29;20083;-79
2022/05/09 11:23:06;;;;;;;10.02;6.18;;;;;;;22.90;71.65;99489.66;4926524;29;20167;-78
2022/05/09 11:26:06;;;;;;;11.07;5.50;;;;;;;23.21;70.90;99478.16;4928944;29;20119;-78
2022/05/09 11:28:50;;;;;;;10.65;6.93;;;;;;;23.05;70.33;99466.66;4924246;29;20395;-78
2022/05/09 11:31:27;;;;;;;10.75;6.55;;;;;;;23.00;70.79;99447.91;4928508;29;20024;-78
2022/05/09 11:34:41;;;;;;;9.27;6.60;;;;;;;23.16;69.96;99454.84;4930378;29;20100;-78
2022/05/09 11:37:38;;;;;;;9.23;6.67;;;;;;;22.97;69.77;99452.72;4945390;28;20051;-78
2022/05/09 11:40:26;;;;;;;8.13;6.40;;;;;;;23.60;69.93;99442.00;4941327;28;20110;-77
2022/05/09 11:46:08;;;;;;;9.75;6.70;;;;;;;23.17;70.72;99443.06;4917136;29;20115;-79
2022/05/09 11:48:55;;;;;;;7.78;6.38;;;;;;;23.69;70.22;99426.97;4925097;29;20516;-79